Time;durP1;ratioP1;P1;durP2;ratioP2;P2;SDS_P1;SDS_P2;PMS_P1;PMS_P2;Temp;Humidity;BMP_temperature;BMP_pressure;BME280_temperature;BME280_humidity;BME280_pressure;Samples;Min_cycle;Max_cycle;Signal;HPM_P1;HPM_P2
2021/12/26 00:02:09;;;;;;;9.10;6.20;;;4.30;99.90;;;;;;6266734;28;20473;-62
2021/12/26 00:05:14;;;;;;;6.53;5.80;;;4.30;99.90;;;;;;6276147;28;20540;-62
2021/12/26 00:08:17;;;;;;;6.33;4.80;;;4.20;99.90;;;;;;6275683;28;20466;-63
2021/12/26 00:11:20;;;;;;;7.20;5.50;;;4.20;99.90;;;;;;6275582;28;20481;-63
2021/12/26 00:14:24;;;;;;;6.40;5.80;;;4.20;99.90;;;;;;6276221;28;20470;-63
2021/12/26 00:17:27;;;;;;;6.30;5.67;;;4.20;99.90;;;;;;6275776;28;20489;-62
2021/12/26 00:20:32;;;;;;;6.20;5.60;;;4.20;99.90;;;;;;6276332;28;20854;-62
2021/12/26 00:23:35;;;;;;;6.30;5.60;;;4.20;99.90;;;;;;6277064;28;20965;-63
2021/12/26 00:26:38;;;;;;;6.47;5.50;;;4.30;99.90;;;;;;6276605;28;20462;-62
2021/12/26 00:29:41;;;;;;;6.87;5.13;;;4.40;99.90;;;;;;6275339;28;20453;-62
2021/12/26 00:32:45;;;;;;;5.17;4.67;;;4.40;99.90;;;;;;6276140;28;20539;-62
2021/12/26 00:35:50;;;;;;;5.37;4.87;;;4.50;99.90;;;;;;6275950;28;20646;-62
2021/12/26 00:38:53;;;;;;;6.87;5.30;;;4.50;99.90;;;;;;6275800;28;20442;-62
2021/12/26 00:41:56;;;;;;;5.07;4.53;;;4.50;99.90;;;;;;6275699;28;20447;-62
2021/12/26 00:44:59;;;;;;;5.13;4.37;;;4.50;99.90;;;;;;6275906;28;20458;-62
2021/12/26 00:48:03;;;;;;;6.80;6.10;;;4.40;99.90;;;;;;6275494;28;20490;-63
2021/12/26 00:51:07;;;;;;;4.93;4.50;;;4.40;99.90;;;;;;6275827;28;20473;-62
2021/12/26 00:54:11;;;;;;;5.80;5.30;;;4.30;99.90;;;;;;6275430;28;20466;-62
2021/12/26 00:57:14;;;;;;;6.87;5.47;;;4.40;99.90;;;;;;6275080;28;20961;-63
2021/12/26 01:00:20;;;;;;;6.77;5.67;;;4.40;99.90;;;;;;6275080;28;20461;-63
2021/12/26 01:03:24;;;;;;;8.53;6.30;;;4.40;99.90;;;;;;6274956;28;20478;-63
2021/12/26 01:06:28;;;;;;;7.07;6.10;;;4.40;99.90;;;;;;6275493;28;20780;-63
2021/12/26 01:09:31;;;;;;;6.73;6.03;;;4.40;99.90;;;;;;6274934;28;20470;-62
2021/12/26 01:12:35;;;;;;;7.50;5.50;;;4.30;99.90;;;;;;6275049;28;20462;-62
2021/12/26 01:15:38;;;;;;;6.83;6.07;;;4.30;99.90;;;;;;6274541;28;20482;-62
2021/12/26 01:18:45;;;;;;;6.60;5.77;;;4.20;99.90;;;;;;6275349;28;20514;-62
2021/12/26 01:21:50;;;;;;;5.70;5.03;;;4.20;99.90;;;;;;6275313;28;20532;-63
2021/12/26 01:24:55;;;;;;;5.27;4.77;;;4.20;99.90;;;;;;6275341;28;20488;-63
2021/12/26 01:27:59;;;;;;;6.80;5.40;;;4.20;99.90;;;;;;6274664;28;20804;-63
2021/12/26 01:31:02;;;;;;;5.40;4.67;;;4.20;99.90;;;;;;6274604;28;20474;-63
2021/12/26 01:34:07;;;;;;;5.90;5.30;;;4.20;99.90;;;;;;6274537;28;20478;-63
2021/12/26 01:37:11;;;;;;;5.47;4.97;;;4.10;99.90;;;;;;6278675;28;20477;-63
2021/12/26 01:40:15;;;;;;;4.90;4.43;;;4.20;99.90;;;;;;6279205;28;20978;-63
2021/12/26 01:43:21;;;;;;;4.77;4.33;;;4.10;99.90;;;;;;6279552;28;20470;-63
2021/12/26 01:46:25;;;;;;;5.40;4.93;;;4.10;99.90;;;;;;6279694;28;20470;-63
2021/12/26 01:49:30;;;;;;;4.93;4.50;;;4.00;99.90;;;;;;6279380;28;20556;-63
2021/12/26 01:52:34;;;;;;;5.67;4.97;;;4.10;99.90;;;;;;6279233;28;20485;-63
2021/12/26 01:55:42;;;;;;;6.43;5.87;;;4.10;99.90;;;;;;6279130;28;20485;-63
2021/12/26 01:58:45;;;;;;;5.70;5.20;;;4.10;99.90;;;;;;6279066;28;20476;-64
2021/12/26 02:01:49;;;;;;;6.83;5.73;;;4.10;99.90;;;;;;6279337;28;20458;-63
2021/12/26 02:04:52;;;;;;;6.50;5.47;;;4.00;99.90;;;;;;6279051;28;20528;-63
2021/12/26 02:07:57;;;;;;;6.47;5.80;;;4.00;99.90;;;;;;6273936;28;20500;-63
2021/12/26 02:11:02;;;;;;;5.90;5.30;;;4.00;99.90;;;;;;6278586;28;20478;-63
2021/12/26 02:14:05;;;;;;;5.90;5.30;;;4.00;99.90;;;;;;6278764;28;20481;-63
2021/12/26 02:17:09;;;;;;;6.70;6.10;;;3.80;99.90;;;;;;6278594;28;20807;-63
2021/12/26 02:20:24;;;;;;;6.23;5.67;;;3.80;99.90;;;;;;6278508;28;20466;-63
2021/12/26 02:23:32;;;;;;;5.93;5.43;;;3.80;99.90;;;;;;6278694;28;20486;-63
2021/12/26 02:29:56;;;;;;;5.50;5.03;;;3.70;99.90;;;;;;6278190;28;20768;-63
2021/12/26 02:33:03;;;;;;;6.53;5.93;;;3.70;99.90;;;;;;6278296;28;20481;-64
2021/12/26 02:36:08;;;;;;;5.33;4.83;;;3.50;99.90;;;;;;6278338;28;20799;-65
2021/12/26 02:39:12;;;;;;;5.87;5.10;;;3.60;99.90;;;;;;6278569;28;20484;-63
2021/12/26 02:42:18;;;;;;;6.70;5.70;;;3.60;99.90;;;;;;6278306;28;20468;-63
2021/12/26 02:45:21;;;;;;;8.37;6.00;;;3.70;99.90;;;;;;6278121;28;20488;-64
2021/12/26 02:48:24;;;;;;;8.33;6.50;;;3.70;99.90;;;;;;6277406;28;20470;-64
2021/12/26 02:51:29;;;;;;;6.30;5.37;;;3.70;99.90;;;;;;6278450;28;20462;-64
2021/12/26 02:54:32;;;;;;;6.53;5.57;;;3.80;99.90;;;;;;6277837;28;20477;-64
2021/12/26 02:57:35;;;;;;;6.80;6.10;;;3.80;99.90;;;;;;6278466;28;20473;-64
2021/12/26 03:00:43;;;;;;;6.47;5.63;;;3.80;99.90;;;;;;6277471;28;20470;-64
2021/12/26 03:03:47;;;;;;;7.07;6.37;;;3.80;99.90;;;;;;6277505;28;20482;-64
2021/12/26 03:07:01;;;;;;;7.00;6.30;;;3.80;99.90;;;;;;6277565;28;20485;-64
2021/12/26 03:10:06;;;;;;;6.80;6.07;;;3.90;99.90;;;;;;6267869;28;20470;-64
2021/12/26 03:13:11;;;;;;;6.13;5.53;;;3.80;99.90;;;;;;6277111;28;20478;-64
2021/12/26 03:16:15;;;;;;;6.60;6.00;;;3.90;99.90;;;;;;6277262;28;20795;-64
2021/12/26 03:19:18;;;;;;;6.50;5.80;;;3.90;99.90;;;;;;6277305;28;20493;-64
2021/12/26 03:22:25;;;;;;;7.00;6.30;;;3.90;99.90;;;;;;6277219;28;20474;-64
2021/12/26 03:25:30;;;;;;;6.80;6.17;;;4.00;99.90;;;;;;6277154;28;20474;-64
2021/12/26 03:28:34;;;;;;;7.40;6.43;;;3.90;99.90;;;;;;6277032;28;20466;-64
2021/12/26 03:31:39;;;;;;;6.27;5.67;;;3.90;99.90;;;;;;6276829;28;20788;-64
2021/12/26 03:34:46;;;;;;;8.57;6.80;;;3.90;99.90;;;;;;6276579;28;20497;-64
2021/12/26 03:37:52;;;;;;;8.10;7.30;;;3.90;99.90;;;;;;6276812;28;20481;-64
2021/12/26 03:40:56;;;;;;;6.70;6.10;;;3.90;99.90;;;;;;6276830;28;20470;-64
2021/12/26 03:43:59;;;;;;;9.40;6.10;;;3.80;99.90;;;;;;6276561;28;20481;-64
2021/12/26 03:47:02;;;;;;;7.13;6.43;;;3.80;99.90;;;;;;6276817;28;20479;-64
2021/12/26 03:50:08;;;;;;;8.77;6.67;;;3.80;99.90;;;;;;6276400;28;20949;-64
2021/12/26 03:53:14;;;;;;;7.57;6.90;;;3.80;99.90;;;;;;6276517;28;20474;-64
2021/12/26 03:56:17;;;;;;;7.87;7.07;;;3.80;99.90;;;;;;6276298;28;20466;-64
2021/12/26 03:59:20;;;;;;;8.37;7.47;;;3.80;99.90;;;;;;6275920;28;20986;-64
2021/12/26 04:02:23;;;;;;;6.73;6.03;;;3.80;99.90;;;;;;6276103;28;20481;-64
2021/12/26 04:05:26;;;;;;;7.80;6.53;;;3.80;99.90;;;;;;6275798;28;20470;-64
2021/12/26 04:08:31;;;;;;;7.20;6.50;;;3.80;99.90;;;;;;6276564;28;20492;-64
2021/12/26 04:11:35;;;;;;;8.03;6.80;;;3.80;99.90;;;;;;6275717;28;20504;-64
2021/12/26 04:14:38;;;;;;;7.40;6.60;;;3.70;99.90;;;;;;6266142;28;20482;-64
2021/12/26 04:17:42;;;;;;;8.63;7.33;;;3.70;99.90;;;;;;6275696;28;20446;-64
2021/12/26 04:20:46;;;;;;;8.87;7.57;;;3.70;99.90;;;;;;6275833;28;20459;-64
2021/12/26 04:23:50;;;;;;;8.90;7.00;;;3.70;99.90;;;;;;6275877;28;20458;-64
2021/12/26 04:26:53;;;;;;;7.17;6.33;;;3.60;99.90;;;;;;6275407;28;20442;-64
2021/12/26 04:29:57;;;;;;;7.87;7.07;;;3.50;99.90;;;;;;6276045;28;20476;-64
2021/12/26 04:33:01;;;;;;;8.60;7.73;;;3.60;99.90;;;;;;6275180;28;20481;-64
2021/12/26 04:36:04;;;;;;;7.30;6.60;;;3.60;99.90;;;;;;6275707;28;20921;-64
2021/12/26 04:39:09;;;;;;;7.20;6.10;;;3.60;99.90;;;;;;6276099;28;20507;-64
2021/12/26 04:42:12;;;;;;;8.87;6.80;;;3.50;99.90;;;;;;6275343;28;20464;-64
2021/12/26 04:45:16;;;;;;;8.53;7.73;;;3.50;99.90;;;;;;6275745;28;20474;-64
2021/12/26 04:48:20;;;;;;;10.57;7.17;;;3.50;99.90;;;;;;6275399;28;20477;-64
2021/12/26 04:51:23;;;;;;;9.70;8.30;;;3.50;99.90;;;;;;6275339;28;20465;-64
2021/12/26 04:54:27;;;;;;;8.20;7.40;;;3.50;99.90;;;;;;6275265;28;20489;-63
2021/12/26 04:57:31;;;;;;;8.40;7.43;;;3.40;99.90;;;;;;6274779;28;20470;-63
2021/12/26 05:00:34;;;;;;;8.70;7.27;;;3.50;99.90;;;;;;6274989;28;20489;-64
2021/12/26 05:03:39;;;;;;;8.63;7.47;;;3.50;99.90;;;;;;6274999;28;20543;-64
2021/12/26 05:06:42;;;;;;;9.60;8.33;;;3.50;99.90;;;;;;6274761;28;20462;-63
2021/12/26 05:09:48;;;;;;;10.30;7.40;;;3.50;99.90;;;;;;6274131;28;20462;-63
2021/12/26 05:12:51;;;;;;;8.47;6.90;;;3.50;99.90;;;;;;6274572;28;20470;-63
2021/12/26 05:15:55;;;;;;;9.10;7.70;;;3.50;99.90;;;;;;6269817;28;20462;-63
2021/12/26 05:18:59;;;;;;;9.63;7.03;;;3.40;99.90;;;;;;6275358;28;20482;-63
2021/12/26 05:22:02;;;;;;;10.73;8.50;;;3.30;99.90;;;;;;6274917;28;20477;-63
2021/12/26 05:25:08;;;;;;;7.37;6.67;;;3.30;99.90;;;;;;6274380;28;20474;-63
2021/12/26 05:28:11;;;;;;;9.23;6.97;;;3.30;99.90;;;;;;6274635;28;20492;-63
2021/12/26 05:31:14;;;;;;;8.23;7.10;;;3.30;99.90;;;;;;6274905;28;20473;-63
2021/12/26 05:34:17;;;;;;;11.23;7.40;;;3.30;99.90;;;;;;6274485;28;20555;-63
2021/12/26 05:37:20;;;;;;;8.90;8.00;;;3.20;99.90;;;;;;6274251;28;20477;-63
2021/12/26 05:40:25;;;;;;;8.37;7.20;;;3.10;99.90;;;;;;6274759;28;20990;-63
2021/12/26 05:43:28;;;;;;;9.23;7.97;;;3.10;99.90;;;;;;6274243;28;20545;-63
2021/12/26 05:46:32;;;;;;;9.13;7.13;;;3.10;99.90;;;;;;6274893;28;20981;-64
2021/12/26 05:49:35;;;;;;;9.30;8.00;;;3.20;99.90;;;;;;6274372;28;20485;-64
2021/12/26 05:52:39;;;;;;;10.37;9.27;;;3.30;99.90;;;;;;6274287;28;20957;-64
2021/12/26 05:55:43;;;;;;;10.27;7.40;;;3.30;99.90;;;;;;6274655;28;20478;-63
2021/12/26 05:58:46;;;;;;;10.90;7.97;;;3.20;99.90;;;;;;6274855;28;20776;-63
2021/12/26 06:01:49;;;;;;;8.60;7.40;;;3.30;99.90;;;;;;6274455;28;20485;-64
2021/12/26 06:04:53;;;;;;;9.10;8.17;;;3.30;99.90;;;;;;6274383;28;20488;-63
2021/12/26 06:07:56;;;;;;;8.73;7.90;;;3.40;99.90;;;;;;6274363;28;20995;-64
2021/12/26 06:11:00;;;;;;;9.33;8.03;;;3.40;99.90;;;;;;6274145;28;20962;-63
2021/12/26 06:14:04;;;;;;;9.27;8.37;;;3.50;99.90;;;;;;6274125;28;20478;-63
2021/12/26 06:17:07;;;;;;;9.03;7.30;;;3.40;99.90;;;;;;6274341;28;20488;-62
2021/12/26 06:20:14;;;;;;;12.70;8.83;;;3.50;99.90;;;;;;6274239;28;20548;-62
2021/12/26 06:23:17;;;;;;;12.00;8.87;;;3.40;99.90;;;;;;6276152;28;20474;-63
2021/12/26 06:26:24;;;;;;;8.40;7.20;;;3.40;99.90;;;;;;6278469;28;20466;-63
2021/12/26 06:29:27;;;;;;;9.40;8.33;;;3.40;99.90;;;;;;6278152;28;20470;-63
2021/12/26 06:32:30;;;;;;;10.77;8.53;;;3.50;99.90;;;;;;6278650;28;20470;-63
2021/12/26 06:35:33;;;;;;;9.77;7.63;;;3.50;99.90;;;;;;6278697;28;20702;-63
2021/12/26 06:38:37;;;;;;;10.00;8.17;;;3.40;99.90;;;;;;6278385;28;20469;-63
2021/12/26 06:41:42;;;;;;;10.57;8.50;;;3.40;99.90;;;;;;6277853;28;20863;-63
2021/12/26 06:44:45;;;;;;;10.43;8.63;;;3.40;99.90;;;;;;6278173;28;20470;-63
2021/12/26 06:47:51;;;;;;;12.43;9.90;;;3.40;99.90;;;;;;6277976;28;20446;-63
2021/12/26 06:50:55;;;;;;;13.50;9.70;;;3.50;99.90;;;;;;6277552;28;20891;-64
2021/12/26 06:53:58;;;;;;;14.00;9.80;;;3.50;99.90;;;;;;6277743;28;20462;-63
2021/12/26 06:57:03;;;;;;;13.60;10.40;;;3.50;99.90;;;;;;6278014;28;20450;-64
2021/12/26 07:00:11;;;;;;;12.80;10.27;;;3.50;99.90;;;;;;6278612;28;20462;-64
2021/12/26 07:03:14;;;;;;;16.23;11.70;;;3.50;99.90;;;;;;6277714;28;20474;-63
2021/12/26 07:06:18;;;;;;;14.73;11.10;;;3.50;99.90;;;;;;6277822;28;20595;-63
2021/12/26 07:09:21;;;;;;;15.27;11.37;;;3.60;99.90;;;;;;6277638;28;20473;-63
2021/12/26 07:12:30;;;;;;;14.50;11.00;;;3.60;99.90;;;;;;6277094;28;20559;-63
2021/12/26 07:15:33;;;;;;;16.83;11.67;;;3.60;99.90;;;;;;6278409;28;20950;-63
2021/12/26 07:18:36;;;;;;;13.50;10.60;;;3.50;99.90;;;;;;6278277;28;20479;-63
2021/12/26 07:21:40;;;;;;;14.97;10.07;;;3.60;99.90;;;;;;6277473;28;20780;-63
2021/12/26 07:24:44;;;;;;;13.03;9.83;;;3.60;99.90;;;;;;6277277;28;20792;-63
2021/12/26 07:27:48;;;;;;;13.40;12.00;;;3.60;99.90;;;;;;6277817;28;20477;-63
2021/12/26 07:30:52;;;;;;;16.10;12.63;;;3.50;99.90;;;;;;6278172;28;20471;-63
2021/12/26 07:33:55;;;;;;;14.43;10.67;;;3.60;99.90;;;;;;6278873;28;20489;-64
2021/12/26 07:37:02;;;;;;;13.70;11.10;;;3.50;99.90;;;;;;6278416;28;20520;-63
2021/12/26 07:40:07;;;;;;;15.33;11.33;;;3.50;99.90;;;;;;6277190;28;20485;-64
2021/12/26 07:43:12;;;;;;;14.43;10.70;;;3.40;99.90;;;;;;6277392;28;20481;-63
2021/12/26 07:46:16;;;;;;;12.00;10.33;;;3.40;99.90;;;;;;6276916;28;20938;-63
2021/12/26 07:49:21;;;;;;;15.63;11.53;;;3.50;99.90;;;;;;6277564;28;20600;-63
2021/12/26 07:52:29;;;;;;;12.80;9.47;;;3.40;99.90;;;;;;6276719;28;20473;-64
2021/12/26 07:55:32;;;;;;;14.70;11.77;;;3.40;99.90;;;;;;6277327;28;20486;-63
2021/12/26 07:58:37;;;;;;;15.40;11.47;;;3.40;99.90;;;;;;6277389;28;21008;-63
2021/12/26 08:01:41;;;;;;;12.83;10.23;;;3.40;99.90;;;;;;6277077;28;20477;-63
2021/12/26 08:04:44;;;;;;;14.40;11.23;;;3.40;99.90;;;;;;6276027;28;20466;-64
2021/12/26 08:07:48;;;;;;;10.60;9.50;;;3.40;99.90;;;;;;6276034;28;20492;-64
2021/12/26 08:10:51;;;;;;;13.30;10.43;;;3.40;99.90;;;;;;6275916;28;20473;-64
2021/12/26 08:13:55;;;;;;;12.27;10.10;;;3.40;99.90;;;;;;6275665;28;20478;-64
2021/12/26 08:16:59;;;;;;;11.93;10.40;;;3.40;99.90;;;;;;6276045;28;20489;-64
2021/12/26 08:20:02;;;;;;;11.70;9.80;;;3.40;99.90;;;;;;6275537;28;20798;-64
2021/12/26 08:23:05;;;;;;;11.77;9.80;;;3.50;99.90;;;;;;6276030;28;20845;-64
2021/12/26 08:26:11;;;;;;;11.67;9.27;;;3.60;99.90;;;;;;6275882;28;20628;-63
2021/12/26 08:29:15;;;;;;;13.60;10.10;;;3.60;99.90;;;;;;6275591;28;20536;-64
2021/12/26 08:32:19;;;;;;;13.50;10.60;;;3.50;99.90;;;;;;6275864;28;20493;-64
2021/12/26 08:35:22;;;;;;;11.50;9.83;;;3.50;99.90;;;;;;6275376;28;20488;-64
2021/12/26 08:38:26;;;;;;;12.30;11.00;;;3.50;99.90;;;;;;6275531;28;20470;-64
2021/12/26 08:41:29;;;;;;;9.23;8.23;;;3.50;99.90;;;;;;6275351;28;20478;-64
2021/12/26 08:44:34;;;;;;;12.50;10.33;;;3.50;99.90;;;;;;6274557;28;20486;-64
2021/12/26 08:47:37;;;;;;;12.97;10.40;;;3.50;99.90;;;;;;6275286;28;20516;-64
2021/12/26 08:50:41;;;;;;;13.60;10.30;;;3.50;99.90;;;;;;6274674;28;20469;-64
2021/12/26 08:53:44;;;;;;;14.30;9.90;;;3.60;99.90;;;;;;6274743;28;20827;-64
2021/12/26 08:56:47;;;;;;;13.17;9.90;;;3.50;99.90;;;;;;6275095;28;20484;-64
2021/12/26 08:59:52;;;;;;;11.77;9.43;;;3.60;99.90;;;;;;6275492;28;20442;-64
2021/12/26 09:02:55;;;;;;;11.20;8.07;;;3.60;99.90;;;;;;6274643;28;20772;-64
2021/12/26 09:05:58;;;;;;;15.13;10.70;;;3.70;99.90;;;;;;6275258;28;20442;-64
2021/12/26 09:09:03;;;;;;;11.40;9.70;;;3.70;99.90;;;;;;6275531;28;20765;-63
2021/12/26 09:12:08;;;;;;;10.60;8.83;;;3.80;99.90;;;;;;6275340;28;20454;-64
2021/12/26 09:15:14;;;;;;;15.33;13.73;;;3.90;99.90;;;;;;6274325;28;20478;-64
2021/12/26 09:18:17;;;;;;;12.73;9.00;;;4.00;99.90;;;;;;6275083;28;20462;-64
2021/12/26 09:21:20;;;;;;;12.23;9.77;;;3.90;99.90;;;;;;6274861;28;20470;-64
2021/12/26 09:24:23;;;;;;;12.20;9.77;;;4.00;99.90;;;;;;6274865;28;20493;-64
2021/12/26 09:27:27;;;;;;;12.60;9.33;;;4.10;99.90;;;;;;6274128;28;20802;-64
2021/12/26 09:30:31;;;;;;;14.47;10.43;;;4.10;99.90;;;;;;6270201;28;20473;-64
2021/12/26 09:33:34;;;;;;;12.63;10.20;;;4.20;99.90;;;;;;6274323;28;20494;-63
2021/12/26 09:36:38;;;;;;;15.97;11.40;;;4.20;99.90;;;;;;6274541;28;20482;-63
2021/12/26 09:39:41;;;;;;;14.10;10.00;;;4.30;99.90;;;;;;6274194;28;20799;-63
2021/12/26 09:42:45;;;;;;;15.10;11.00;;;4.40;99.90;;;;;;6274560;28;20519;-63
2021/12/26 09:45:50;;;;;;;17.27;10.27;;;4.50;99.90;;;;;;6274013;28;20471;-63
2021/12/26 09:48:53;;;;;;;15.97;11.70;;;4.50;99.90;;;;;;6274180;28;20489;-63
2021/12/26 09:51:56;;;;;;;12.27;9.10;;;4.50;99.90;;;;;;6274058;28;20481;-64
2021/12/26 09:55:00;;;;;;;14.73;10.67;;;4.60;99.90;;;;;;6274159;28;20478;-63
2021/12/26 09:58:04;;;;;;;18.27;12.40;;;4.60;99.90;;;;;;6277674;28;20470;-64
2021/12/26 10:01:09;;;;;;;16.90;10.60;;;4.60;99.90;;;;;;6278949;28;20763;-63
2021/12/26 10:04:20;;;;;;;16.17;11.57;;;4.60;99.90;;;;;;6279008;28;20977;-63
2021/12/26 10:07:26;;;;;;;15.70;10.83;;;4.70;99.90;;;;;;6279178;28;20478;-63
2021/12/26 10:10:29;;;;;;;13.83;11.53;;;4.60;99.90;;;;;;6279575;28;20559;-63
2021/12/26 10:13:44;;;;;;;14.60;10.43;;;4.70;99.90;;;;;;6279598;28;20480;-63
2021/12/26 10:16:50;;;;;;;13.40;10.27;;;4.60;99.90;;;;;;6279646;28;21263;-63
2021/12/26 10:20:02;;;;;;;12.90;8.90;;;4.60;99.90;;;;;;6279533;28;20462;-64
2021/12/26 10:23:26;;;;;;;13.33;9.00;;;4.70;99.90;;;;;;6279642;28;20481;-63
2021/12/26 10:26:32;;;;;;;14.67;9.17;;;4.70;99.90;;;;;;6279796;28;20488;-63
2021/12/26 10:29:38;;;;;;;13.63;9.53;;;4.70;99.90;;;;;;6279174;28;21081;-63
2021/12/26 10:32:43;;;;;;;13.03;9.07;;;4.60;99.90;;;;;;6278361;28;20466;-63
2021/12/26 10:35:46;;;;;;;11.60;9.03;;;4.60;99.90;;;;;;6277177;28;20476;-64
2021/12/26 10:39:08;;;;;;;13.50;9.10;;;4.70;99.90;;;;;;6278246;28;20454;-63
2021/12/26 10:42:16;;;;;;;11.50;8.93;;;4.70;99.90;;;;;;6278387;28;20469;-64
2021/12/26 10:45:21;;;;;;;12.20;9.73;;;4.80;99.90;;;;;;6278889;28;20474;-64
2021/12/26 10:48:26;;;;;;;10.60;7.50;;;4.80;99.90;;;;;;6278508;28;20475;-64
2021/12/26 10:51:36;;;;;;;16.57;12.20;;;4.90;99.90;;;;;;6277950;28;20790;-63
2021/12/26 10:54:41;;;;;;;10.40;8.97;;;4.70;99.90;;;;;;6278624;28;20478;-63
2021/12/26 10:57:50;;;;;;;10.80;9.27;;;4.80;99.90;;;;;;6279521;28;20477;-63
2021/12/26 11:00:56;;;;;;;9.37;7.53;;;4.80;99.90;;;;;;6278835;28;20473;-63
2021/12/26 11:04:07;;;;;;;9.20;7.13;;;4.80;99.90;;;;;;6277669;28;20478;-63
2021/12/26 11:07:10;;;;;;;13.53;9.23;;;4.70;99.90;;;;;;6277478;28;20896;-63
2021/12/26 11:10:18;;;;;;;10.33;8.40;;;4.70;99.90;;;;;;6276969;28;20481;-63
2021/12/26 11:13:23;;;;;;;10.60;8.90;;;4.60;99.90;;;;;;6277591;28;20473;-63
2021/12/26 11:16:38;;;;;;;10.33;8.93;;;4.60;99.90;;;;;;6277441;28;20559;-63
2021/12/26 11:19:47;;;;;;;9.83;8.53;;;4.60;99.90;;;;;;6277185;28;20978;-63
2021/12/26 11:22:52;;;;;;;11.53;8.10;;;4.70;99.90;;;;;;6277328;28;20465;-63
2021/12/26 11:25:57;;;;;;;10.33;8.80;;;4.70;99.90;;;;;;6277060;28;20486;-63
2021/12/26 11:29:01;;;;;;;12.10;9.77;;;4.80;99.90;;;;;;6252534;28;20475;-63
2021/12/26 11:32:05;;;;;;;10.20;8.73;;;4.90;99.90;;;;;;6252330;28;20471;-63
2021/12/26 11:35:14;;;;;;;12.33;9.43;;;4.90;99.90;;;;;;6252273;28;20483;-63
2021/12/26 11:38:19;;;;;;;11.10;8.97;;;4.80;99.90;;;;;;6247359;28;20487;-63
2021/12/26 11:41:32;;;;;;;11.87;8.50;;;4.60;99.90;;;;;;6252263;28;20818;-63
2021/12/26 11:44:51;;;;;;;9.73;8.63;;;4.60;99.90;;;;;;6252343;28;20475;-63
2021/12/26 11:48:37;;;;;;;10.27;9.27;;;4.60;99.90;;;;;;6251828;28;20517;-63
2021/12/26 11:52:15;;;;;;;9.90;8.13;;;4.50;99.90;;;;;;6252062;28;20474;-63
2021/12/26 11:55:29;;;;;;;10.37;8.87;;;4.50;99.90;;;;;;6251223;28;20983;-62
2021/12/26 11:58:45;;;;;;;11.50;10.30;;;4.60;99.90;;;;;;6251853;28;20471;-63
2021/12/26 12:01:50;;;;;;;12.10;9.83;;;4.60;99.90;;;;;;6251759;28;20471;-63
2021/12/26 12:05:08;;;;;;;12.70;10.60;;;4.70;99.90;;;;;;6251928;28;20479;-63
2021/12/26 12:08:16;;;;;;;14.57;12.33;;;4.60;99.90;;;;;;6251579;28;20856;-62
2021/12/26 12:11:21;;;;;;;12.03;10.47;;;4.60;99.90;;;;;;6270026;28;20471;-62
2021/12/26 12:14:49;;;;;;;11.10;9.97;;;4.60;99.90;;;;;;6276185;28;20478;-63
2021/12/26 12:18:10;;;;;;;11.07;9.90;;;4.50;99.90;;;;;;6276679;28;20768;-62
2021/12/26 12:21:15;;;;;;;12.57;11.23;;;4.50;99.90;;;;;;6279450;28;20465;-62
2021/12/26 12:24:25;;;;;;;11.70;10.50;;;4.30;99.90;;;;;;6277355;28;20482;-63
2021/12/26 12:27:28;;;;;;;12.03;10.70;;;4.30;99.90;;;;;;6277569;28;20806;-63
2021/12/26 12:30:32;;;;;;;14.23;11.40;;;4.30;99.90;;;;;;6276968;28;20474;-64
2021/12/26 12:33:36;;;;;;;14.93;11.90;;;4.20;99.90;;;;;;6275941;28;20973;-63
2021/12/26 12:36:41;;;;;;;13.40;11.10;;;4.10;99.90;;;;;;6276371;28;20474;-63
2021/12/26 12:40:08;;;;;;;12.33;11.10;;;4.00;99.90;;;;;;6266707;28;20481;-63
2021/12/26 12:43:13;;;;;;;13.70;11.20;;;3.90;99.90;;;;;;6275533;28;20485;-63
2021/12/26 12:46:16;;;;;;;13.33;11.40;;;3.90;99.90;;;;;;6276532;28;20482;-63
2021/12/26 12:49:39;;;;;;;13.87;10.40;;;4.10;99.90;;;;;;6276888;28;20473;-63
2021/12/26 12:52:45;;;;;;;13.80;11.50;;;4.20;99.90;;;;;;6276537;28;20478;-63
2021/12/26 12:55:51;;;;;;;12.60;10.80;;;4.20;99.90;;;;;;6275532;28;20462;-63
2021/12/26 12:59:42;;;;;;;16.70;11.77;;;4.20;99.90;;;;;;6276688;28;20489;-63
2021/12/26 13:02:53;;;;;;;15.60;10.73;;;4.10;99.90;;;;;;6276298;28;20508;-63
2021/12/26 13:05:56;;;;;;;14.33;12.40;;;4.20;99.90;;;;;;6276551;28;20474;-63
2021/12/26 13:09:01;;;;;;;14.50;11.77;;;4.30;99.90;;;;;;6277029;28;20492;-63
2021/12/26 13:12:08;;;;;;;18.03;12.80;;;4.30;99.90;;;;;;6275903;28;20454;-63
2021/12/26 13:15:12;;;;;;;18.03;13.07;;;4.30;99.90;;;;;;6276493;28;20958;-64
2021/12/26 13:18:16;;;;;;;14.17;12.40;;;4.20;99.90;;;;;;6275750;28;20462;-64
2021/12/26 13:21:19;;;;;;;16.17;11.23;;;4.10;99.90;;;;;;6276355;28;20490;-64
2021/12/26 13:24:29;;;;;;;12.37;11.10;;;4.20;99.90;;;;;;6275812;28;20795;-64
2021/12/26 13:27:33;;;;;;;15.90;13.60;;;4.10;99.90;;;;;;6275609;28;20477;-64
2021/12/26 13:30:39;;;;;;;17.33;13.23;;;3.90;99.90;;;;;;6276216;28;20466;-64
2021/12/26 13:33:45;;;;;;;16.40;12.57;;;3.90;99.90;;;;;;6279684;28;20488;-64
2021/12/26 13:36:48;;;;;;;15.90;12.80;;;3.90;99.90;;;;;;6279378;28;20552;-63
2021/12/26 13:39:56;;;;;;;18.40;13.70;;;3.90;99.90;;;;;;6279515;28;20469;-63
2021/12/26 13:43:00;;;;;;;18.43;12.87;;;3.80;99.90;;;;;;6270038;28;20536;-63
2021/12/26 13:46:05;;;;;;;18.10;14.00;;;3.80;99.90;;;;;;6279084;28;20802;-63
2021/12/26 13:49:12;;;;;;;17.83;13.57;;;3.70;99.90;;;;;;6279294;28;20462;-63
2021/12/26 13:52:19;;;;;;;19.47;14.23;;;3.70;99.90;;;;;;6279447;28;20474;-63
2021/12/26 13:55:24;;;;;;;21.60;16.00;;;3.80;99.90;;;;;;6279484;28;20865;-63
2021/12/26 13:58:36;;;;;;;15.43;13.10;;;3.80;99.90;;;;;;6279261;28;20538;-62
2021/12/26 14:01:43;;;;;;;20.80;14.20;;;3.90;99.90;;;;;;6279127;28;20802;-62
2021/12/26 14:04:48;;;;;;;20.30;14.83;;;3.90;99.90;;;;;;6279230;28;20565;-62
2021/12/26 14:07:59;;;;;;;19.10;13.77;;;3.90;99.90;;;;;;6278678;28;20470;-63
2021/12/26 14:11:05;;;;;;;19.30;14.20;;;4.00;99.90;;;;;;6278695;28;20481;-63
2021/12/26 14:14:10;;;;;;;22.43;14.37;;;4.00;99.90;;;;;;6278433;28;20822;-63
2021/12/26 14:17:13;;;;;;;20.17;14.87;;;3.90;99.90;;;;;;6278814;28;20474;-63
2021/12/26 14:20:16;;;;;;;20.97;14.70;;;4.00;99.90;;;;;;6278783;28;20522;-63
2021/12/26 14:23:22;;;;;;;24.43;16.47;;;3.90;99.90;;;;;;6278648;28;20485;-63
2021/12/26 14:26:30;;;;;;;49.87;27.53;;;3.90;99.90;;;;;;6278248;28;20473;-63
2021/12/26 14:29:35;;;;;;;16.13;12.87;;;3.90;99.90;;;;;;6278740;28;20477;-63
2021/12/26 14:32:39;;;;;;;22.17;14.93;;;3.90;99.90;;;;;;6278540;28;20474;-63
2021/12/26 14:35:46;;;;;;;23.10;15.43;;;3.70;99.90;;;;;;6278178;28;20591;-63
2021/12/26 14:38:53;;;;;;;24.40;16.00;;;3.60;99.90;;;;;;6277913;28;20474;-63
2021/12/26 14:41:57;;;;;;;22.70;15.77;;;3.60;99.90;;;;;;6278247;28;20442;-63
2021/12/26 14:45:07;;;;;;;23.00;14.90;;;3.60;99.90;;;;;;6272682;28;20933;-63
2021/12/26 14:48:23;;;;;;;25.27;16.07;;;3.60;99.90;;;;;;6278277;28;20459;-62
2021/12/26 14:51:26;;;;;;;25.93;16.53;;;3.60;99.90;;;;;;6278054;28;20981;-62
2021/12/26 14:54:37;;;;;;;20.57;14.23;;;3.70;99.90;;;;;;6278182;28;20485;-63
2021/12/26 14:57:40;;;;;;;25.00;15.83;;;3.70;99.90;;;;;;6278294;28;20470;-63
2021/12/26 15:00:47;;;;;;;21.53;15.10;;;3.60;99.90;;;;;;6278404;28;20470;-63
2021/12/26 15:03:50;;;;;;;23.50;15.57;;;3.70;99.90;;;;;;6278556;28;20557;-63
2021/12/26 15:06:55;;;;;;;24.30;16.03;;;3.70;99.90;;;;;;6278048;28;20478;-63
2021/12/26 15:10:02;;;;;;;23.00;15.97;;;3.60;99.90;;;;;;6277938;28;20979;-64
2021/12/26 15:13:11;;;;;;;22.70;15.77;;;3.70;99.90;;;;;;6277713;28;20981;-64
2021/12/26 15:16:27;;;;;;;23.93;16.87;;;3.60;99.90;;;;;;6277794;28;20474;-64
2021/12/26 15:19:39;;;;;;;31.30;17.87;;;3.60;99.90;;;;;;6277772;28;20552;-63
2021/12/26 15:22:45;;;;;;;25.53;17.63;;;3.50;99.90;;;;;;6277924;28;20466;-63
2021/12/26 15:25:54;;;;;;;26.70;17.23;;;3.50;99.90;;;;;;6277569;28;20466;-64
2021/12/26 15:29:02;;;;;;;25.63;15.80;;;3.50;99.90;;;;;;6277405;28;20470;-64
2021/12/26 15:32:15;;;;;;;23.47;15.80;;;3.50;99.90;;;;;;6277045;28;20819;-64
2021/12/26 15:35:19;;;;;;;27.70;17.63;;;3.40;99.90;;;;;;6277273;28;20474;-64
2021/12/26 15:38:22;;;;;;;27.17;17.00;;;3.40;99.90;;;;;;6276983;28;20485;-64
2021/12/26 15:41:27;;;;;;;26.37;17.43;;;3.40;99.90;;;;;;6276514;28;20474;-64
2021/12/26 15:44:31;;;;;;;19.13;15.57;;;3.40;99.90;;;;;;6276897;28;20486;-64
2021/12/26 15:47:35;;;;;;;22.40;15.00;;;3.50;99.90;;;;;;6276948;28;21252;-64
2021/12/26 15:50:40;;;;;;;24.17;17.50;;;3.50;99.90;;;;;;6277793;28;20539;-63
2021/12/26 15:53:44;;;;;;;23.83;15.43;;;3.50;99.90;;;;;;6272100;28;20497;-64
2021/12/26 15:56:48;;;;;;;21.97;15.40;;;3.50;99.90;;;;;;6276475;28;20458;-63
2021/12/26 15:59:51;;;;;;;25.33;18.07;;;3.50;99.90;;;;;;6276623;28;20470;-64
2021/12/26 16:02:55;;;;;;;22.30;13.60;;;3.50;99.90;;;;;;6276409;28;20524;-66
2021/12/26 16:05:59;;;;;;;24.03;16.57;;;3.60;99.90;;;;;;6276499;28;20515;-63
2021/12/26 16:09:06;;;;;;;22.23;16.60;;;3.40;99.90;;;;;;6276878;28;20442;-63